Time;durP1;ratioP1;P1;durP2;ratioP2;P2;SDS_P1;SDS_P2;PMS_P1;PMS_P2;Temp;Humidity;BMP_temperature;BMP_pressure;BME280_temperature;BME280_humidity;BME280_pressure;Samples;Min_cycle;Max_cycle;Signal;HPM_P1;HPM_P2
2023/05/08 07:50:48;;;;;;;2.12;1.23;;;;;;;13.31;77.38;99363.94;4491145;31;223085;-67
2023/05/08 07:53:16;;;;;;;7.57;1.50;;;;;;;13.31;77.38;99363.94;4495531;31;20125;-68
2023/05/08 07:55:43;;;;;;;1.52;1.10;;;;;;;13.04;79.38;99359.38;4495659;31;20446;-68
2023/05/08 07:58:11;;;;;;;1.73;1.30;;;;;;;13.20;81.50;99366.75;4494986;31;20171;-65
2023/05/08 08:00:39;;;;;;;3.50;2.00;;;;;;;13.16;76.50;99362.72;4495568;31;20122;-64
2023/05/08 08:03:07;;;;;;;2.83;1.40;;;;;;;13.54;76.40;99362.84;4494775;31;20823;-65
2023/05/08 08:05:34;;;;;;;6.37;1.30;;;;;;;14.01;79.24;99366.31;4494589;31;20494;-63
2023/05/08 08:08:01;;;;;;;2.22;1.85;;;;;;;13.97;74.32;99362.31;4499192;31;20096;-65
2023/05/08 08:10:30;;;;;;;1.85;1.23;;;;;;;13.66;75.59;99357.25;4495159;31;20112;-64
2023/05/08 08:12:57;;;;;;;2.03;1.37;;;;;;;13.66;73.73;99364.34;4495894;31;20151;-64
2023/05/08 08:15:24;;;;;;;5.20;1.37;;;;;;;13.37;73.31;99359.13;4494778;31;20084;-65
2023/05/08 08:17:52;;;;;;;2.17;1.40;;;;;;;13.52;74.90;99359.50;4494538;31;20151;-65
2023/05/08 08:20:19;;;;;;;3.28;1.45;;;;;;;13.61;73.70;99353.41;4496497;31;20088;-64
2023/05/08 08:22:46;;;;;;;2.78;1.20;;;;;;;13.77;82.01;99353.63;4499524;31;20107;-64
2023/05/08 08:25:13;;;;;;;2.72;1.20;;;;;;;13.62;76.31;99355.88;4496067;31;20164;-65
2023/05/08 08:27:41;;;;;;;2.67;1.50;;;;;;;13.63;74.63;99351.47;4495691;31;20528;-64
2023/05/08 08:30:08;;;;;;;2.35;1.37;;;;;;;13.91;77.26;99354.97;4502604;31;20144;-64
2023/05/08 08:32:45;;;;;;;1.55;1.10;;;;;;;14.24;73.42;99347.50;4494530;31;20449;-64
2023/05/08 08:35:12;;;;;;;1.83;1.10;;;;;;;14.22;70.37;99351.22;4493012;31;20113;-64
2023/05/08 08:37:40;;;;;;;2.75;1.10;;;;;;;14.18;69.71;99348.91;4494779;31;20125;-63
2023/05/08 08:40:08;;;;;;;1.65;1.40;;;;;;;13.82;73.87;99351.41;4493503;31;20130;-64
2023/05/08 08:42:35;;;;;;;1.50;1.10;;;;;;;13.82;71.52;99348.78;4495332;31;20163;-64
2023/05/08 08:45:02;;;;;;;1.48;1.00;;;;;;;13.65;74.04;99347.69;4492696;31;20136;-63
2023/05/08 08:47:36;;;;;;;1.45;1.20;;;;;;;13.75;71.82;99344.25;4496139;31;20122;-64
2023/05/08 08:50:05;;;;;;;2.15;1.30;;;;;;;13.89;74.95;99356.94;4495732;31;20157;-64
2023/05/08 08:53:02;;;;;;;2.65;1.40;;;;;;;13.95;71.70;99352.91;4497204;31;20494;-64
2023/05/08 08:55:29;;;;;;;3.37;1.60;;;;;;;14.14;72.79;99359.88;4493846;31;20183;-64
2023/05/08 08:58:03;;;;;;;2.78;1.20;;;;;;;14.19;70.61;99357.66;4492324;31;20096;-63
2023/05/08 09:00:32;;;;;;;9.97;1.37;;;;;;;13.84;71.57;99356.53;4491754;31;20449;-64
2023/05/08 09:03:00;;;;;;;2.15;1.10;;;;;;;14.09;71.60;99351.59;4480024;31;20167;-64
2023/05/08 09:05:28;;;;;;;1.65;1.08;;;;;;;13.95;70.72;99353.72;4484075;31;20159;-64
2023/05/08 09:07:55;;;;;;;1.85;1.25;;;;;;;14.27;70.50;99351.66;4484877;31;20781;-65
2023/05/08 09:10:23;;;;;;;2.92;1.50;;;;;;;14.68;69.03;99357.41;4479821;31;20248;-64
2023/05/08 09:12:50;;;;;;;4.70;1.35;;;;;;;14.66;67.05;99356.72;4483488;31;20116;-64
2023/05/08 09:15:18;;;;;;;2.83;1.20;;;;;;;14.60;67.82;99352.84;4483257;31;20080;-65
2023/05/08 09:17:45;;;;;;;1.08;0.93;;;;;;;15.00;69.93;99348.97;4484023;31;20496;-65
2023/05/08 09:20:14;;;;;;;2.05;1.17;;;;;;;15.40;66.89;99360.84;4483642;31;20108;-63
2023/05/08 09:22:42;;;;;;;3.33;1.17;;;;;;;15.44;64.96;99338.44;4484643;31;20116;-65
2023/05/08 09:25:10;;;;;;;4.03;1.17;;;;;;;15.21;65.04;99350.47;4482087;31;20109;-65
2023/05/08 09:27:38;;;;;;;1.02;0.90;;;;;;;15.43;64.58;99352.63;4483493;31;20759;-64
2023/05/08 09:30:07;;;;;;;9.70;1.30;;;;;;;15.21;62.36;99345.19;4483994;31;20127;-65
2023/05/08 09:32:36;;;;;;;1.05;0.85;;;;;;;15.34;61.51;99348.28;4485553;31;20101;-67
2023/05/08 09:35:05;;;;;;;1.70;1.10;;;;;;;14.73;60.83;99342.78;4482235;31;20111;-66
2023/05/08 09:37:32;;;;;;;1.70;1.10;;;;;;;14.58;59.42;99348.69;4483074;31;20525;-66
2023/05/08 09:40:20;;;;;;;1.37;1.23;;;;;;;14.75;58.46;99357.62;4481943;31;20135;-66
2023/05/08 09:42:49;;;;;;;2.35;0.75;;;;;;;14.66;60.52;99352.28;4486797;31;20141;-65
2023/05/08 09:45:27;;;;;;;2.10;1.25;;;;;;;14.80;57.65;99342.19;4487985;31;20110;-65
2023/05/08 09:47:55;;;;;;;6.68;2.28;;;;;;;14.95;60.51;99351.22;4483488;31;20125;-66
2023/05/08 09:50:23;;;;;;;2.45;0.85;;;;;;;14.98;57.89;99350.94;4485938;31;20104;-66
2023/05/08 09:52:50;;;;;;;1.30;0.77;;;;;;;15.15;57.86;99346.63;4484618;31;20108;-67
2023/05/08 09:55:18;;;;;;;0.75;0.60;;;;;;;15.35;57.38;99352.56;4483728;31;20489;-66
2023/05/08 09:57:57;;;;;;;1.40;0.70;;;;;;;15.38;56.83;99336.44;4482562;31;20104;-68
2023/05/08 10:00:26;;;;;;;1.85;0.75;;;;;;;15.63;58.46;99344.50;4483029;31;20104;-68
2023/05/08 10:03:01;;;;;;;2.15;0.70;;;;;;;15.94;53.77;99336.09;4494209;31;20212;-65
2023/05/08 10:05:30;;;;;;;0.77;0.50;;;;;;;15.83;53.02;99341.69;4488538;31;20107;-66
2023/05/08 10:08:17;;;;;;;0.50;0.50;;;;;;;15.41;51.33;99336.13;4486991;31;20076;-66
2023/05/08 10:10:46;;;;;;;1.52;0.70;;;;;;;15.40;53.03;99339.72;4489689;31;20091;-66
2023/05/08 10:13:13;;;;;;;0.82;0.60;;;;;;;15.75;54.04;99343.25;4492501;31;20097;-65
2023/05/08 10:15:43;;;;;;;3.08;0.50;;;;;;;15.40;51.79;99338.91;4499115;31;20100;-65
2023/05/08 10:18:10;;;;;;;0.50;0.43;;;;;;;15.42;51.06;99332.47;4497312;31;20544;-65
2023/05/08 10:20:41;;;;;;;1.20;0.50;;;;;;;15.49;49.94;99335.34;4494238;31;20135;-65
2023/05/08 10:23:10;;;;;;;11.88;0.90;;;;;;;15.53;49.63;99333.22;4488523;31;20115;-67
2023/05/08 10:25:44;;;;;;;1.83;0.50;;;;;;;15.68;48.71;99329.00;4488182;31;20496;-64
2023/05/08 10:28:11;;;;;;;;;;;;;;;15.92;49.44;99330.97;4485067;31;20104;-65
2023/05/08 10:30:43;;;;;;;0.47;0.40;;;;;;;15.96;48.27;99328.88;4492212;31;19980;-65
2023/05/08 10:33:14;;;;;;;4.97;0.55;;;;;;;15.72;47.69;99330.34;4498200;31;20151;-64
2023/05/08 10:35:41;;;;;;;1.33;0.45;;;;;;;15.95;48.83;99322.75;4490595;31;20419;-63
2023/05/08 10:38:09;;;;;;;0.45;0.30;;;;;;;16.00;47.43;99313.50;4483918;31;20107;-64
2023/05/08 10:40:37;;;;;;;11.82;1.00;;;;;;;15.87;47.74;99316.63;4483606;31;20788;-65
2023/05/08 10:43:06;;;;;;;17.05;0.82;;;;;;;15.95;48.06;99308.72;4498351;31;20574;-66
2023/05/08 10:45:34;;;;;;;0.45;0.32;;;;;;;16.17;48.06;99303.81;4485178;31;20093;-63
2023/05/08 10:48:26;;;;;;;16.75;0.95;;;;;;;16.36;46.57;99302.75;4483941;31;20113;-63
2023/05/08 10:50:55;;;;;;;1.00;0.45;;;;;;;16.44;46.16;99310.69;4491326;31;20157;-65
2023/05/08 10:53:56;;;;;;;1.33;0.50;;;;;;;16.26;47.79;99301.06;4489896;31;20096;-65
2023/05/08 10:56:28;;;;;;;1.35;0.75;;;;;;;16.35;47.19;99296.62;4483882;31;20178;-67
2023/05/08 10:58:57;;;;;;;3.92;0.37;;;;;;;16.25;45.44;99296.75;4490907;31;20197;-67
2023/05/08 11:01:25;;;;;;;0.43;0.35;;;;;;;16.21;45.88;99299.87;4487228;31;20149;-65
2023/05/08 11:03:54;;;;;;;2.65;0.68;;;;;;;16.63;45.63;99291.06;4489987;31;20100;-63
2023/05/08 11:06:41;;;;;;;3.80;0.40;;;;;;;16.35;44.68;99296.62;4480787;31;20159;-65
2023/05/08 11:09:14;;;;;;;0.70;0.40;;;;;;;16.56;44.70;99304.09;4486031;31;20156;-64
2023/05/08 11:11:51;;;;;;;3.45;0.50;;;;;;;16.87;45.08;99300.06;4493737;31;20843;-65
2023/05/08 11:14:20;;;;;;;0.65;0.40;;;;;;;16.81;43.24;99291.75;4496643;31;20119;-63
2023/05/08 11:16:53;;;;;;;0.68;0.35;;;;;;;16.61;44.08;99291.22;4496555;31;20104;-64
2023/05/08 11:19:23;;;;;;;2.05;0.50;;;;;;;16.80;43.82;99290.06;4483586;32;20140;-64
2023/05/08 11:22:18;;;;;;;2.25;0.52;;;;;;;17.18;43.37;99285.16;4483456;31;20089;-64
2023/05/08 11:24:52;;;;;;;1.98;0.40;;;;;;;17.29;41.52;99296.38;4483926;31;20103;-66
2023/05/08 11:27:32;;;;;;;;;;;;;;;17.18;43.77;99284.31;4484323;31;20084;-65
2023/05/08 11:30:18;;;;;;;1.75;0.47;;;;;;;17.45;42.97;99287.59;4486133;31;19987;-65
2023/05/08 11:33:12;;;;;;;0.40;0.40;;;;;;;17.15;43.01;99292.59;4484803;31;20138;-66
2023/05/08 11:35:46;;;;;;;0.90;0.35;;;;;;;16.99;42.15;99282.84;4497274;31;20163;-66
2023/05/08 11:38:16;;;;;;;2.37;0.30;;;;;;;17.05;42.82;99282.19;4482915;31;20092;-66
2023/05/08 11:40:48;;;;;;;2.25;0.30;;;;;;;17.13;41.72;99282.16;4490453;31;20434;-66
2023/05/08 11:43:26;;;;;;;0.47;0.40;;;;;;;17.10;40.78;99277.22;4483282;31;20144;-67
2023/05/08 11:45:53;;;;;;;2.08;0.40;;;;;;;17.20;41.47;99285.00;4494474;31;20123;-66
2023/05/08 11:48:21;;;;;;;0.82;0.60;;;;;;;17.15;39.79;99277.56;4481938;31;20096;-67
2023/05/08 11:50:48;;;;;;;0.40;0.40;;;;;;;17.38;40.04;99282.13;4490579;31;20092;-66
2023/05/08 11:53:16;;;;;;;4.22;2.47;;;;;;;17.45;39.67;99272.53;4481351;31;20496;-67
2023/05/08 11:55:47;;;;;;;0.57;0.30;;;;;;;17.88;40.02;99272.22;4494230;31;20095;-67
2023/05/08 11:58:15;;;;;;;0.55;0.35;;;;;;;18.02;36.45;99273.38;4495691;31;20099;-64
2023/05/08 12:00:44;;;;;;;2.42;0.50;;;;;;;17.78;37.95;99284.87;4491643;31;20210;-66
2023/05/08 12:03:14;;;;;;;12.30;1.02;;;;;;;17.57;38.93;99275.63;4493139;31;20096;-65
2023/05/08 12:05:42;;;;;;;0.55;0.43;;;;;;;17.81;39.53;99274.75;4488041;31;20100;-65
2023/05/08 12:08:10;;;;;;;1.25;0.40;;;;;;;18.13;42.07;99270.31;4488490;31;20092;-64
2023/05/08 12:10:58;;;;;;;1.35;0.50;;;;;;;18.46;41.39;99271.97;4489680;31;20227;-66
2023/05/08 12:13:28;;;;;;;0.60;0.40;;;;;;;18.41;38.76;99268.00;4485489;31;20100;-65
2023/05/08 12:15:58;;;;;;;1.08;0.40;;;;;;;17.99;38.52;99273.72;4488352;31;20225;-66
2023/05/08 12:18:28;;;;;;;0.90;0.30;;;;;;;17.90;38.86;99267.63;4490429;31;20103;-66
2023/05/08 12:20:59;;;;;;;2.47;0.82;;;;;;;18.05;39.27;99263.22;4497000;31;20127;-66
2023/05/08 12:23:28;;;;;;;13.90;0.80;;;;;;;18.46;39.20;99261.37;4499100;31;20106;-66
2023/05/08 12:26:00;;;;;;;0.62;0.43;;;;;;;18.72;38.04;99264.47;4487922;31;20100;-66
2023/05/08 12:28:28;;;;;;;2.67;0.40;;;;;;;18.59;42.43;99256.28;4488788;31;20466;-66
2023/05/08 12:30:55;;;;;;;18.12;1.75;;;;;;;18.59;38.68;99265.09;4498702;31;20118;-66
2023/05/08 12:33:22;;;;;;;14.27;1.10;;;;;;;18.78;40.75;99268.25;4488505;31;20103;-67
2023/05/08 12:35:50;;;;;;;0.40;0.40;;;;;;;19.07;39.01;99278.16;4484498;31;20112;-64
2023/05/08 12:38:17;;;;;;;0.47;0.45;;;;;;;19.20;37.88;99269.59;4488274;31;20578;-66
2023/05/08 12:40:47;;;;;;;1.23;0.50;;;;;;;18.95;37.60;99272.44;4491218;31;20435;-66
2023/05/08 12:43:15;;;;;;;4.07;0.82;;;;;;;18.80;39.17;99266.22;4485950;31;20484;-65
2023/05/08 12:45:42;;;;;;;1.05;0.70;;;;;;;19.06;38.28;99271.22;4500922;31;20547;-66
2023/05/08 12:48:16;;;;;;;141.93;9.90;;;;;;;19.06;38.31;99265.06;4496258;31;20159;-66
2023/05/08 12:50:44;;;;;;;1.65;0.55;;;;;;;18.99;37.77;99274.78;4501470;31;20093;-66
2023/05/08 12:53:13;;;;;;;19.25;1.15;;;;;;;19.02;40.55;99274.41;4501553;31;20126;-65
2023/05/08 12:55:55;;;;;;;1.25;0.50;;;;;;;19.01;37.87;99272.75;4499377;31;20108;-66
2023/05/08 12:58:24;;;;;;;7.95;1.12;;;;;;;18.80;37.62;99264.44;4487991;31;20092;-67
2023/05/08 13:01:03;;;;;;;10.98;0.75;;;;;;;18.61;38.47;99268.38;4486836;31;20089;-67
2023/05/08 13:03:31;;;;;;;10.00;1.05;;;;;;;18.80;38.22;99269.72;4494446;31;20116;-66
2023/05/08 13:05:59;;;;;;;4.25;0.60;;;;;;;18.91;38.60;99272.97;4486094;31;20157;-67
2023/05/08 13:08:29;;;;;;;7.12;0.82;;;;;;;19.60;45.39;99262.19;4496979;31;20180;-66
2023/05/08 13:10:56;;;;;;;3.42;0.75;;;;;;;19.69;39.29;99270.91;4498586;31;20104;-66
2023/05/08 13:13:29;;;;;;;2.85;0.68;;;;;;;19.74;37.89;99263.19;4489196;31;20163;-66
2023/05/08 13:16:01;;;;;;;1.42;0.55;;;;;;;19.60;39.29;99254.22;4491604;31;20091;-65
2023/05/08 13:18:29;;;;;;;6.97;1.05;;;;;;;19.69;37.74;99266.38;4492909;31;20088;-66
2023/05/08 13:20:57;;;;;;;1.35;0.55;;;;;;;20.10;40.67;99253.66;4494971;31;20072;-66
2023/05/08 13:23:24;;;;;;;35.13;1.42;;;;;;;19.35;36.39;99263.44;4498290;31;20532;-67
2023/05/08 13:25:52;;;;;;;12.73;1.45;;;;;;;19.50;37.62;99261.66;4498423;31;20132;-66
2023/05/08 13:28:19;;;;;;;2.87;0.70;;;;;;;19.85;36.77;99264.59;4490749;31;20169;-65
2023/05/08 13:30:46;;;;;;;0.80;0.50;;;;;;;20.14;36.25;99266.38;4485067;31;20096;-65
2023/05/08 13:33:13;;;;;;;1.90;0.60;;;;;;;19.51;35.33;99263.28;4487597;31;20100;-65
2023/05/08 13:35:41;;;;;;;4.15;0.80;;;;;;;19.54;35.62;99257.59;4489231;31;20104;-65
2023/05/08 13:38:08;;;;;;;9.00;1.50;;;;;;;19.72;35.51;99265.22;4491659;31;20147;-65
2023/05/08 13:40:35;;;;;;;47.92;3.47;;;;;;;19.54;35.18;99267.41;4485936;31;20165;-65
2023/05/08 13:43:02;;;;;;;9.50;1.12;;;;;;;19.69;36.04;99266.38;4492865;31;20100;-65
2023/05/08 13:45:31;;;;;;;21.75;3.30;;;;;;;19.83;37.17;99261.28;4492839;31;20096;-64
2023/05/08 13:47:58;;;;;;;0.47;0.40;;;;;;;19.96;35.49;99253.47;4496150;31;20156;-67
2023/05/08 13:50:26;;;;;;;26.87;1.92;;;;;;;19.70;35.11;99264.59;4491942;31;20774;-66
2023/05/08 13:52:53;;;;;;;21.98;1.60;;;;;;;19.76;35.52;99268.34;4494834;31;20127;-67
2023/05/08 13:55:21;;;;;;;6.30;0.70;;;;;;;20.14;36.10;99260.25;4489176;31;20095;-66
2023/05/08 13:57:49;;;;;;;4.00;0.80;;;;;;;20.28;35.53;99255.91;4484634;31;20101;-67
2023/05/08 14:00:17;;;;;;;3.55;0.70;;;;;;;20.69;36.10;99252.66;4484967;31;20097;-66
2023/05/08 14:02:44;;;;;;;3.35;0.80;;;;;;;21.05;34.04;99255.19;4493679;31;20208;-67
2023/05/08 14:05:12;;;;;;;15.50;1.42;;;;;;;20.67;32.74;99265.34;4499880;31;20100;-67
2023/05/08 14:07:40;;;;;;;13.13;1.02;;;;;;;20.23;33.78;99261.78;4490940;31;20131;-66
2023/05/08 14:10:07;;;;;;;1.55;0.65;;;;;;;20.16;33.79;99260.88;4487549;31;20096;-67
2023/05/08 14:12:36;;;;;;;27.15;3.15;;;;;;;20.56;35.51;99262.13;4492420;31;20122;-67
2023/05/08 14:15:04;;;;;;;3.22;0.70;;;;;;;20.81;34.10;99264.44;4498181;31;20114;-67
2023/05/08 14:17:31;;;;;;;18.42;1.15;;;;;;;20.84;32.02;99260.56;4497446;31;20500;-68
2023/05/08 14:19:59;;;;;;;13.10;1.45;;;;;;;20.41;31.75;99264.03;4484808;31;20165;-67
2023/05/08 14:22:27;;;;;;;5.82;0.70;;;;;;;21.00;32.50;99264.78;4497356;31;20118;-68
2023/05/08 14:24:54;;;;;;;1.12;0.60;;;;;;;20.78;31.44;99264.00;4497704;31;20192;-68
2023/05/08 14:27:22;;;;;;;6.55;0.80;;;;;;;20.77;31.79;99262.34;4488793;31;20160;-68
2023/05/08 14:29:49;;;;;;;3.28;0.80;;;;;;;20.19;30.78;99266.63;4487542;31;20092;-67
2023/05/08 14:32:17;;;;;;;1.98;0.70;;;;;;;20.05;30.70;99286.13;4491819;31;20122;-67
2023/05/08 14:34:44;;;;;;;4.62;0.90;;;;;;;20.54;30.75;99271.31;4489347;31;20112;-66
2023/05/08 14:37:12;;;;;;;2.58;0.77;;;;;;;20.58;30.21;99274.44;4497565;31;20115;-67
2023/05/08 14:39:39;;;;;;;11.12;0.80;;;;;;;20.78;30.40;99262.16;4480861;31;20160;-66
2023/05/08 14:42:07;;;;;;;7.85;0.77;;;;;;;20.27;28.85;99270.19;4492998;31;20096;-69
2023/05/08 14:44:37;;;;;;;9.57;1.00;;;;;;;19.51;29.21;99279.22;4492443;31;20152;-66
2023/05/08 14:47:05;;;;;;;5.55;0.73;;;;;;;19.37;29.42;99282.72;4487303;31;20085;-67
2023/05/08 14:49:32;;;;;;;5.90;0.80;;;;;;;19.42;29.93;99281.12;4487983;31;20405;-66
2023/05/08 14:52:02;;;;;;;39.97;3.10;;;;;;;18.80;28.80;99280.34;4484077;31;20097;-66
2023/05/08 14:54:30;;;;;;;10.98;1.30;;;;;;;18.86;27.69;99276.16;4484586;31;20092;-68
2023/05/08 14:56:57;;;;;;;71.20;5.15;;;;;;;18.99;30.01;99269.47;4483650;32;20101;-67
2023/05/08 14:59:24;;;;;;;72.57;4.45;;;;;;;18.78;29.92;99269.06;4496906;31;20143;-67
2023/05/08 15:01:52;;;;;;;24.80;1.98;;;;;;;18.82;29.85;99277.53;4487484;31;20113;-67
2023/05/08 15:04:20;;;;;;;1.67;0.65;;;;;;;18.77;28.63;99277.22;4500857;31;20199;-66
2023/05/08 15:06:48;;;;;;;16.17;1.67;;;;;;;19.10;27.74;99282.28;4493091;31;20104;-65
2023/05/08 15:09:16;;;;;;;17.55;1.17;;;;;;;19.60;28.49;99287.94;4488665;31;20157;-65
2023/05/08 15:11:43;;;;;;;41.35;2.83;;;;;;;19.77;29.27;99288.59;4491550;31;21694;-66
2023/05/08 15:14:10;;;;;;;4.20;0.82;;;;;;;20.10;28.58;99283.72;4488407;31;20072;-64
2023/05/08 15:16:37;;;;;;;4.25;0.60;;;;;;;19.99;27.72;99286.88;4494646;31;20104;-65
2023/05/08 15:19:05;;;;;;;2.60;0.80;;;;;;;19.82;25.60;99281.75;4495695;31;20084;-64
2023/05/08 15:21:32;;;;;;;9.57;0.85;;;;;;;19.79;27.03;99286.63;4484810;31;20119;-64
2023/05/08 15:23:59;;;;;;;3.85;0.70;;;;;;;19.78;26.93;99276.97;4489042;31;20107;-63
2023/05/08 15:26:28;;;;;;;20.00;1.83;;;;;;;19.76;27.58;99273.66;4498676;31;20134;-63
2023/05/08 15:28:55;;;;;;;2.33;0.77;;;;;;;19.59;27.14;99287.13;4499839;31;20104;-65
2023/05/08 15:31:22;;;;;;;3.60;0.70;;;;;;;19.64;26.95;99290.06;4491369;31;20122;-65
2023/05/08 15:33:50;;;;;;;0.90;0.50;;;;;;;19.67;25.49;99294.19;4497984;31;20126;-65
2023/05/08 15:36:19;;;;;;;4.10;0.77;;;;;;;19.77;25.27;99294.78;4489755;31;20179;-65
2023/05/08 15:38:48;;;;;;;5.15;0.65;;;;;;;19.44;23.69;99289.78;4484938;31;20152;-65
2023/05/08 15:41:15;;;;;;;2.92;0.52;;;;;;;19.60;23.56;99288.75;4498148;31;20133;-65
2023/05/08 15:43:44;;;;;;;4.00;0.60;;;;;;;19.86;23.17;99284.84;4499091;31;20092;-66
2023/05/08 15:46:11;;;;;;;4.50;0.88;;;;;;;20.41;22.90;99284.47;4499130;31;20092;-65
2023/05/08 15:48:38;;;;;;;2.05;0.65;;;;;;;20.47;23.25;99284.56;4498342;31;20115;-65
2023/05/08 15:51:05;;;;;;;0.90;0.50;;;;;;;20.39;23.06;99277.53;4498402;31;20404;-65
2023/05/08 15:53:34;;;;;;;0.98;0.60;;;;;;;20.37;23.98;99278.72;4498834;31;20156;-65
2023/05/08 15:56:04;;;;;;;8.90;1.27;;;;;;;20.51;24.33;99274.34;4498753;31;20100;-65
2023/05/08 15:58:31;;;;;;;4.53;1.15;;;;;;;20.39;24.68;99277.53;4499424;31;20089;-65
2023/05/08 16:00:58;;;;;;;0.52;0.52;;;;;;;20.86;24.37;99272.69;4499369;31;20442;-65
2023/05/08 16:03:26;;;;;;;7.30;0.70;;;;;;;20.77;23.75;99273.00;4500197;31;20204;-65
2023/05/08 16:05:53;;;;;;;6.05;0.73;;;;;;;20.54;24.38;99274.78;4500039;31;20823;-65
2023/05/08 16:08:20;;;;;;;1.65;0.60;;;;;;;20.37;24.31;99273.38;4498930;31;20532;-65
2023/05/08 16:10:48;;;;;;;5.85;0.70;;;;;;;20.19;24.48;99268.47;4500357;31;20103;-65
2023/05/08 16:13:15;;;;;;;0.85;0.55;;;;;;;20.39;24.52;99274.84;4489779;31;20143;-65
2023/05/08 16:15:43;;;;;;;21.77;2.53;;;;;;;20.47;25.13;99263.25;4496205;31;20100;-65
2023/05/08 16:18:10;;;;;;;0.98;0.68;;;;;;;20.80;25.06;99268.09;4502222;31;20122;-65
2023/05/08 16:20:41;;;;;;;2.47;0.85;;;;;;;20.99;24.68;99266.63;4495624;31;20111;-66
2023/05/08 16:23:08;;;;;;;10.60;1.00;;;;;;;21.19;25.38;99265.97;4494399;31;20153;-66
2023/05/08 16:25:35;;;;;;;8.07;1.00;;;;;;;21.13;25.46;99272.06;4489658;31;20495;-66
2023/05/08 16:28:02;;;;;;;7.47;1.08;;;;;;;21.02;25.83;99270.75;4494416;31;20097;-65
2023/05/08 16:30:29;;;;;;;8.82;0.68;;;;;;;21.70;24.87;99268.38;4494442;31;20157;-65
2023/05/08 16:32:57;;;;;;;20.08;2.78;;;;;;;22.04;25.30;99268.50;4489805;31;20229;-65
2023/05/08 16:35:24;;;;;;;0.93;0.65;;;;;;;21.15;26.08;99278.84;4498291;31;20122;-66
2023/05/08 16:37:52;;;;;;;0.90;0.80;;;;;;;21.06;26.70;99278.16;4493209;31;20191;-66
2023/05/08 16:40:19;;;;;;;1.05;0.70;;;;;;;21.20;27.02;99272.94;4490859;31;20676;-66
2023/05/08 16:42:46;;;;;;;1.40;0.70;;;;;;;21.00;27.55;99276.28;4501553;31;20628;-65
2023/05/08 16:45:13;;;;;;;3.95;0.95;;;;;;;20.88;28.31;99277.81;4493838;31;20515;-66
2023/05/08 16:47:41;;;;;;;6.57;1.27;;;;;;;21.09;28.62;99279.63;4496399;31;20114;-65
2023/05/08 16:50:09;;;;;;;3.05;0.82;;;;;;;21.79;29.44;99288.50;4488337;31;20126;-65
2023/05/08 16:52:37;;;;;;;10.55;1.45;;;;;;;22.21;28.76;99285.00;4497782;31;20114;-65
2023/05/08 16:55:05;;;;;;;47.58;3.05;;;;;;;22.44;30.01;99287.38;4486742;31;20092;-65
2023/05/08 16:57:32;;;;;;;4.70;1.62;;;;;;;20.39;36.07;99293.50;4495349;31;20096;-65
2023/05/08 17:00:00;;;;;;;11.80;1.70;;;;;;;19.83;38.74;99298.50;4488591;31;20123;-65
2023/05/08 17:02:27;;;;;;;16.23;1.83;;;;;;;19.46;39.69;99313.50;4498988;31;20666;-65
2023/05/08 17:04:54;;;;;;;9.63;1.37;;;;;;;19.46;40.39;99303.69;4491370;31;20092;-65
2023/05/08 17:07:22;;;;;;;3.53;1.20;;;;;;;19.90;39.89;99307.41;4492673;31;20145;-65
2023/05/08 17:09:54;;;;;;;1.25;1.00;;;;;;;19.43;40.21;99313.88;4493477;31;20156;-65
2023/05/08 17:12:21;;;;;;;5.03;1.30;;;;;;;18.99;40.87;99311.94;4493971;31;20096;-65
2023/05/08 17:14:48;;;;;;;18.55;2.15;;;;;;;18.65;41.52;99321.09;4500555;31;20591;-65
2023/05/08 17:17:17;;;;;;;9.60;1.67;;;;;;;18.43;42.31;99318.25;4489128;31;20454;-65
2023/05/08 17:19:44;;;;;;;11.77;1.60;;;;;;;18.00;43.05;99323.91;4489302;31;20093;-65
2023/05/08 17:22:11;;;;;;;6.03;1.55;;;;;;;17.33;44.40;99332.13;4498052;31;20147;-65
2023/05/08 17:24:39;;;;;;;7.40;1.90;;;;;;;16.81;46.25;99343.84;4489590;31;20100;-65
2023/05/08 17:27:07;;;;;;;7.05;1.40;;;;;;;16.31;47.19;99342.88;4494360;31;20100;-65
2023/05/08 17:29:34;;;;;;;3.17;1.83;;;;;;;15.89;47.59;99343.69;4496532;31;20092;-65
2023/05/08 17:32:01;;;;;;;4.00;1.37;;;;;;;15.52;49.10;99336.81;4501208;31;20091;-65
2023/05/08 17:34:29;;;;;;;9.73;1.87;;;;;;;15.22;50.44;99352.94;4488423;31;20122;-65
2023/05/08 17:36:56;;;;;;;7.20;1.80;;;;;;;15.02;50.87;99349.66;4495257;31;20445;-65
2023/05/08 17:39:23;;;;;;;6.37;1.33;;;;;;;14.69;51.86;99351.97;4489715;31;20148;-65
2023/05/08 17:41:51;;;;;;;5.43;1.70;;;;;;;14.48;52.91;99361.94;4497237;31;20100;-65
2023/05/08 17:44:18;;;;;;;3.67;1.70;;;;;;;14.21;53.75;99355.69;4487907;31;20112;-65
2023/05/08 17:46:46;;;;;;;3.80;1.67;;;;;;;14.12;53.98;99369.75;4496447;31;20104;-64
2023/05/08 17:49:13;;;;;;;8.35;1.67;;;;;;;13.88;54.82;99373.69;4486374;31;20437;-65
2023/05/08 17:51:43;;;;;;;8.82;2.10;;;;;;;13.76;55.24;99374.84;4485441;32;20504;-64
2023/05/08 17:54:11;;;;;;;3.75;1.35;;;;;;;13.62;55.69;99376.13;4498302;31;20100;-64
2023/05/08 17:56:38;;;;;;;2.85;1.40;;;;;;;13.45;56.18;99388.22;4489207;31;20143;-64
2023/05/08 17:59:05;;;;;;;2.12;1.65;;;;;;;13.22;56.38;99385.84;4494324;31;20108;-64
2023/05/08 18:01:32;;;;;;;6.45;2.45;;;;;;;13.07;56.61;99390.69;4495048;31;20556;-64
2023/05/08 18:04:00;;;;;;;5.03;1.90;;;;;;;12.94;57.04;99384.84;4491754;31;20382;-64
2023/05/08 18:06:27;;;;;;;7.28;1.65;;;;;;;12.80;57.26;99388.72;4485244;31;20122;-64
2023/05/08 18:08:54;;;;;;;2.53;1.87;;;;;;;12.63;57.40;99382.31;4485285;31;20102;-64
2023/05/08 18:11:24;;;;;;;9.13;3.42;;;;;;;12.57;58.03;99388.94;4485281;32;20490;-64
2023/05/08 18:13:52;;;;;;;7.75;2.15;;;;;;;12.47;57.75;99388.06;4485529;32;20084;-64
2023/05/08 18:16:20;;;;;;;4.82;2.28;;;;;;;12.32;57.29;99400.75;4498519;31;20680;-64
2023/05/08 18:18:49;;;;;;;22.67;2.50;;;;;;;12.21;57.28;99408.72;4499439;31;20118;-64
2023/05/08 18:21:17;;;;;;;6.18;2.10;;;;;;;12.08;57.71;99411.56;4498935;31;20122;-64
2023/05/08 18:23:44;;;;;;;2.58;1.70;;;;;;;12.02;58.50;99415.56;4499191;31;20115;-64
2023/05/08 18:26:15;;;;;;;2.58;1.73;;;;;;;11.87;57.98;99427.34;4501211;31;20115;-64
2023/05/08 18:28:42;;;;;;;4.50;1.90;;;;;;;11.78;59.22;99428.94;4501061;31;20084;-64
2023/05/08 18:31:10;;;;;;;6.62;1.70;;;;;;;11.62;59.63;99437.25;4500658;31;20118;-64
2023/05/08 18:33:38;;;;;;;3.25;1.83;;;;;;;11.57;59.60;99435.94;4500162;31;20092;-64
2023/05/08 18:36:05;;;;;;;3.37;1.50;;;;;;;11.47;60.34;99439.34;4501305;31;20524;-64
2023/05/08 18:38:34;;;;;;;6.87;1.73;;;;;;;11.37;59.60;99441.06;4501308;31;20527;-64
2023/05/08 18:41:02;;;;;;;6.12;2.20;;;;;;;11.28;59.76;99442.66;4501276;31;20445;-64
2023/05/08 18:43:30;;;;;;;5.93;1.90;;;;;;;11.15;60.81;99444.59;4501114;31;20093;-64
2023/05/08 18:45:59;;;;;;;11.25;2.33;;;;;;;11.06;60.73;99451.41;4501052;31;20163;-64
2023/05/08 18:48:28;;;;;;;3.58;1.70;;;;;;;10.98;60.89;99459.06;4501004;31;20118;-64
2023/05/08 18:50:57;;;;;;;4.87;1.60;;;;;;;10.95;60.02;99456.69;4501015;31;20776;-64
2023/05/08 18:53:24;;;;;;;3.85;2.25;;;;;;;10.85;59.98;99455.75;4500872;31;20114;-64
2023/05/08 18:55:52;;;;;;;4.82;1.80;;;;;;;10.78;59.54;99461.50;4501034;31;20089;-64
2023/05/08 18:58:19;;;;;;;2.37;1.62;;;;;;;10.79;60.26;99471.00;4500941;31;20469;-64
2023/05/08 19:00:49;;;;;;;3.50;1.95;;;;;;;10.73;60.34;99473.28;4500938;31;20495;-64
2023/05/08 19:03:17;;;;;;;5.80;2.53;;;;;;;10.61;60.97;99475.06;4501087;31;20108;-64
2023/05/08 19:05:44;;;;;;;3.12;1.80;;;;;;;10.55;61.61;99481.66;4500856;31;20080;-64
2023/05/08 19:08:12;;;;;;;4.30;2.25;;;;;;;10.50;61.46;99486.38;4500826;31;20096;-64
2023/05/08 19:10:39;;;;;;;4.28;1.50;;;;;;;10.50;61.59;99485.56;4500794;31;20104;-64
2023/05/08 19:13:06;;;;;;;3.45;1.70;;;;;;;10.43;60.83;99487.81;4488216;31;20114;-64
2023/05/08 19:15:34;;;;;;;7.43;1.90;;;;;;;10.34;61.71;99489.38;4493751;31;20491;-64
2023/05/08 19:18:02;;;;;;;3.83;2.05;;;;;;;10.25;60.88;99496.09;4500760;31;20152;-64
2023/05/08 19:20:29;;;;;;;3.10;1.85;;;;;;;10.23;61.34;99489.31;4500709;31;20583;-64
2023/05/08 19:22:56;;;;;;;4.28;2.53;;;;;;;10.15;61.33;99496.94;4500794;31;20889;-64
2023/05/08 19:25:23;;;;;;;5.00;2.10;;;;;;;10.07;62.35;99500.13;4500717;31;20114;-64
2023/05/08 19:27:51;;;;;;;3.83;2.10;;;;;;;10.03;62.31;99507.38;4500815;31;20164;-64
2023/05/08 19:30:18;;;;;;;3.75;2.00;;;;;;;9.98;63.33;99504.28;4500585;31;20139;-64